KCOD/COD METAR and TAF weather

Enter ICAO airport designator
Station Type Date Time Source
KCOD METAR 2019/06/16 05:56 UTC NOAA

KCOD 160556Z AUTO 14005KT 10SM SCT100 13/11 A3007 RMK AO2 SLP153 60002 T01280106 10167 20128 58003


Station Type Date Time Source
KCOD Decoded METAR 2019/06/16 05:56 UTC NOAA

Cody, WY, United States (KCOD) 44-31N 109-01W 1553M
Jun 16, 2019 - 01:56 AM EDT / 2019.06.16 0556 UTC
Wind: from the SE (140 degrees) at 6 MPH (5 KT):0
Visibility: 10 mile(s):0
Sky conditions: partly cloudy
Temperature: 55.0 F (12.8 C)
Dew Point: 51.1 F (10.6 C)
Relative Humidity: 86%
Pressure (altimeter): 30.07 in. Hg (1018 hPa)
Pressure tendency: 0.01 inches (0.3 hPa) lower than three hours ago
ob: KCOD 160556Z AUTO 14005KT 10SM SCT100 13/11 A3007 RMK AO2 SLP153 60002 T01280106 10167 20128 58003
cycle: 6

Station Type Date Time Source
KCOD TAF 2019/06/16 06:27 UTC NOAA

TAF KCOD 160525Z 1606/1706 VRB04KT P6SM SCT060 BKN120
FM161600 06008KT P6SM VCSH SCT050 BKN070
FM161900 03010G16KT P6SM VCTS SCT060 BKN080CB
FM170100 32008KT P6SM BKN100
FM170500 VRB04KT P6SM SCT120
AMD LTD TO CLD VIS AND WIND

Example: see airport list